sensor_id;sensor_type;location;lat;lon;timestamp;pressure;altitude;pressure_sealevel;temperature;humidity
66547;BME280;53400;50.364;14.874;2023-04-27T00:00:14;98868.81;;;4.84;71.82
66547;BME280;53400;50.364;14.874;2023-04-27T00:03:03;98871.88;;;5.01;70.01
66547;BME280;53400;50.364;14.874;2023-04-27T00:05:52;98864.09;;;4.86;71.26
66547;BME280;53400;50.364;14.874;2023-04-27T00:08:57;98871.25;;;4.79;71.00
66547;BME280;53400;50.364;14.874;2023-04-27T00:12:22;98867.56;;;4.87;72.82
66547;BME280;53400;50.364;14.874;2023-04-27T00:18:31;98870.84;;;4.95;73.81
66547;BME280;53400;50.364;14.874;2023-04-27T00:21:02;98865.38;;;4.97;73.93
66547;BME280;53400;50.364;14.874;2023-04-27T00:23:57;98875.75;;;4.85;73.59
66547;BME280;53400;50.364;14.874;2023-04-27T00:27:05;98872.28;;;4.91;70.89
66547;BME280;53400;50.364;14.874;2023-04-27T00:29:53;98872.88;;;4.73;72.94
66547;BME280;53400;50.364;14.874;2023-04-27T00:32:57;98874.13;;;4.91;71.43
66547;BME280;53400;50.364;14.874;2023-04-27T00:35:47;98872.28;;;4.85;74.70
66547;BME280;53400;50.364;14.874;2023-04-27T00:38:37;98878.97;;;4.60;76.00
66547;BME280;53400;50.364;14.874;2023-04-27T00:41:35;98880.81;;;4.60;75.13
66547;BME280;53400;50.364;14.874;2023-04-27T00:44:05;98880.81;;;4.67;75.89
66547;BME280;53400;50.364;14.874;2023-04-27T00:46:58;98875.28;;;4.55;76.54
66547;BME280;53400;50.364;14.874;2023-04-27T00:50:21;98879.63;;;4.76;76.89
66547;BME280;53400;50.364;14.874;2023-04-27T00:52:56;98873.31;;;4.90;75.90
66547;BME280;53400;50.364;14.874;2023-04-27T00:55:35;98872.66;;;4.68;75.82
66547;BME280;53400;50.364;14.874;2023-04-27T00:58:19;98875.13;;;4.15;78.72
66547;BME280;53400;50.364;14.874;2023-04-27T01:00:59;98878.44;;;3.89;80.91
66547;BME280;53400;50.364;14.874;2023-04-27T01:03:37;98874.41;;;3.93;81.16
66547;BME280;53400;50.364;14.874;2023-04-27T01:06:04;98879.38;;;4.09;79.24
66547;BME280;53400;50.364;14.874;2023-04-27T01:12:40;98876.03;;;4.35;78.96
66547;BME280;53400;50.364;14.874;2023-04-27T01:15:20;98874.53;;;4.88;80.31
66547;BME280;53400;50.364;14.874;2023-04-27T01:18:20;98884.75;;;4.84;77.29
66547;BME280;53400;50.364;14.874;2023-04-27T01:21:03;98879.59;;;4.63;77.93
66547;BME280;53400;50.364;14.874;2023-04-27T01:27:26;98882.66;;;4.66;78.37
66547;BME280;53400;50.364;14.874;2023-04-27T01:29:54;98883.97;;;5.37;75.44
66547;BME280;53400;50.364;14.874;2023-04-27T01:32:32;98880.84;;;4.87;73.45
66547;BME280;53400;50.364;14.874;2023-04-27T01:35:31;98885.38;;;4.31;78.42
66547;BME280;53400;50.364;14.874;2023-04-27T01:38:26;98888.91;;;4.45;80.03
66547;BME280;53400;50.364;14.874;2023-04-27T01:40:56;98885.47;;;4.51;78.71
66547;BME280;53400;50.364;14.874;2023-04-27T01:43:36;98885.03;;;4.00;80.39
66547;BME280;53400;50.364;14.874;2023-04-27T01:46:16;98885.88;;;4.55;76.27
66547;BME280;53400;50.364;14.874;2023-04-27T01:48:57;98881.81;;;4.59;75.20
66547;BME280;53400;50.364;14.874;2023-04-27T01:51:31;98887.31;;;4.57;74.49
66547;BME280;53400;50.364;14.874;2023-04-27T01:54:05;98890.78;;;4.58;75.33
66547;BME280;53400;50.364;14.874;2023-04-27T01:56:43;98882.84;;;4.10;77.34
66547;BME280;53400;50.364;14.874;2023-04-27T01:59:18;98885.63;;;4.36;76.15
66547;BME280;53400;50.364;14.874;2023-04-27T02:02:00;98890.03;;;4.23;76.83
66547;BME280;53400;50.364;14.874;2023-04-27T02:04:28;98890.81;;;4.65;75.82
66547;BME280;53400;50.364;14.874;2023-04-27T02:07:27;98889.59;;;4.74;75.21
66547;BME280;53400;50.364;14.874;2023-04-27T02:10:49;98891.34;;;4.40;75.60
66547;BME280;53400;50.364;14.874;2023-04-27T02:13:51;98893.72;;;4.22;76.63
66547;BME280;53400;50.364;14.874;2023-04-27T02:17:06;98893.44;;;4.58;75.19
66547;BME280;53400;50.364;14.874;2023-04-27T02:20:08;98896.97;;;4.72;75.17
66547;BME280;53400;50.364;14.874;2023-04-27T02:23:14;98906.97;;;4.22;76.62
66547;BME280;53400;50.364;14.874;2023-04-27T02:25:42;98907.34;;;4.12;77.77
66547;BME280;53400;50.364;14.874;2023-04-27T02:28:34;98919.28;;;4.36;76.70
66547;BME280;53400;50.364;14.874;2023-04-27T02:31:40;98914.88;;;3.52;82.01
66547;BME280;53400;50.364;14.874;2023-04-27T02:34:40;98912.34;;;3.65;80.81
66547;BME280;53400;50.364;14.874;2023-04-27T02:37:22;98908.81;;;3.58;81.62
66547;BME280;53400;50.364;14.874;2023-04-27T02:40:33;98906.41;;;3.35;81.36
66547;BME280;53400;50.364;14.874;2023-04-27T02:43:13;98907.13;;;3.79;79.73
66547;BME280;53400;50.364;14.874;2023-04-27T02:45:45;98914.91;;;4.22;78.56
66547;BME280;53400;50.364;14.874;2023-04-27T02:48:38;98915.31;;;3.84;79.68
66547;BME280;53400;50.364;14.874;2023-04-27T02:51:48;98910.34;;;4.02;77.43
66547;BME280;53400;50.364;14.874;2023-04-27T02:55:11;98912.75;;;3.97;79.08
66547;BME280;53400;50.364;14.874;2023-04-27T02:58:01;98911.22;;;3.81;79.55
66547;BME280;53400;50.364;14.874;2023-04-27T03:01:03;98914.03;;;3.73;80.66
66547;BME280;53400;50.364;14.874;2023-04-27T03:04:12;98910.22;;;3.54;80.85
66547;BME280;53400;50.364;14.874;2023-04-27T03:07:49;98919.56;;;4.13;78.53
66547;BME280;53400;50.364;14.874;2023-04-27T03:11:43;98916.38;;;4.31;77.25
66547;BME280;53400;50.364;14.874;2023-04-27T03:14:45;98912.94;;;4.37;76.85
66547;BME280;53400;50.364;14.874;2023-04-27T03:17:50;98905.78;;;4.99;91.57
66547;BME280;53400;50.364;14.874;2023-04-27T03:20:29;98904.75;;;4.32;79.36
66547;BME280;53400;50.364;14.874;2023-04-27T03:26:19;98925.16;;;4.31;76.61
66547;BME280;53400;50.364;14.874;2023-04-27T03:28:51;98920.25;;;3.87;77.96
66547;BME280;53400;50.364;14.874;2023-04-27T03:31:32;98923.34;;;3.97;78.22
66547;BME280;53400;50.364;14.874;2023-04-27T03:34:08;98919.47;;;3.93;78.54
66547;BME280;53400;50.364;14.874;2023-04-27T03:36:47;98930.09;;;4.00;78.16
66547;BME280;53400;50.364;14.874;2023-04-27T03:39:26;98936.91;;;3.81;78.69
66547;BME280;53400;50.364;14.874;2023-04-27T03:41:55;98934.47;;;3.86;79.65
66547;BME280;53400;50.364;14.874;2023-04-27T03:44:24;98928.03;;;3.67;80.95
66547;BME280;53400;50.364;14.874;2023-04-27T03:46:59;98932.81;;;3.50;82.56
66547;BME280;53400;50.364;14.874;2023-04-27T03:49:31;98935.84;;;3.47;82.81
66547;BME280;53400;50.364;14.874;2023-04-27T03:52:26;98942.00;;;3.54;82.82
66547;BME280;53400;50.364;14.874;2023-04-27T03:55:28;98950.63;;;3.63;83.08
66547;BME280;53400;50.364;14.874;2023-04-27T03:58:11;98948.53;;;3.58;82.09
66547;BME280;53400;50.364;14.874;2023-04-27T04:00:38;98945.75;;;3.17;84.40
66547;BME280;53400;50.364;14.874;2023-04-27T04:03:33;98952.56;;;3.26;85.20
66547;BME280;53400;50.364;14.874;2023-04-27T04:06:19;98952.03;;;3.37;84.26
66547;BME280;53400;50.364;14.874;2023-04-27T04:09:39;98956.78;;;3.42;84.11
66547;BME280;53400;50.364;14.874;2023-04-27T04:12:24;98959.47;;;3.49;83.50
66547;BME280;53400;50.364;14.874;2023-04-27T04:15:20;98965.94;;;3.67;82.05
66547;BME280;53400;50.364;14.874;2023-04-27T04:18:49;98964.50;;;3.93;80.91
66547;BME280;53400;50.364;14.874;2023-04-27T04:21:55;98959.59;;;4.25;80.09
66547;BME280;53400;50.364;14.874;2023-04-27T04:25:21;98975.72;;;4.23;77.72
66547;BME280;53400;50.364;14.874;2023-04-27T04:27:54;98972.69;;;4.33;79.43
66547;BME280;53400;50.364;14.874;2023-04-27T04:30:28;98979.53;;;4.14;78.15
66547;BME280;53400;50.364;14.874;2023-04-27T04:33:07;98982.06;;;4.01;79.83
66547;BME280;53400;50.364;14.874;2023-04-27T04:35:41;98988.44;;;4.06;79.81
66547;BME280;53400;50.364;14.874;2023-04-27T04:38:37;98984.41;;;3.82;79.48
66547;BME280;53400;50.364;14.874;2023-04-27T04:42:06;98985.25;;;3.61;80.86
66547;BME280;53400;50.364;14.874;2023-04-27T04:45:00;98989.66;;;3.76;80.13
66547;BME280;53400;50.364;14.874;2023-04-27T04:47:28;98995.66;;;3.63;82.22
66547;BME280;53400;50.364;14.874;2023-04-27T04:50:38;98994.16;;;4.10;78.88
66547;BME280;53400;50.364;14.874;2023-04-27T04:53:17;98996.06;;;3.88;79.06
66547;BME280;53400;50.364;14.874;2023-04-27T04:55:46;98996.31;;;3.93;79.36
66547;BME280;53400;50.364;14.874;2023-04-27T04:58:12;98993.97;;;3.34;82.10
66547;BME280;53400;50.364;14.874;2023-04-27T05:00:49;98986.44;;;3.37;81.61
66547;BME280;53400;50.364;14.874;2023-04-27T05:03:41;98998.22;;;3.13;83.26
66547;BME280;53400;50.364;14.874;2023-04-27T05:06:42;98999.41;;;3.47;81.01
66547;BME280;53400;50.364;14.874;2023-04-27T05:09:26;99000.41;;;3.74;79.55
66547;BME280;53400;50.364;14.874;2023-04-27T05:12:25;99000.50;;;3.81;79.13
66547;BME280;53400;50.364;14.874;2023-04-27T05:15:25;98995.78;;;3.55;79.80
66547;BME280;53400;50.364;14.874;2023-04-27T05:18:37;99012.81;;;3.67;81.47
66547;BME280;53400;50.364;14.874;2023-04-27T05:21:13;99004.72;;;3.75;79.15
66547;BME280;53400;50.364;14.874;2023-04-27T05:23:55;99006.19;;;3.56;81.05
66547;BME280;53400;50.364;14.874;2023-04-27T05:26:45;99003.50;;;3.99;77.92
66547;BME280;53400;50.364;14.874;2023-04-27T05:29:14;99009.25;;;4.09;77.68
66547;BME280;53400;50.364;14.874;2023-04-27T05:32:00;99015.13;;;4.33;78.77
66547;BME280;53400;50.364;14.874;2023-04-27T05:34:31;98993.19;;;3.61;80.75
66547;BME280;53400;50.364;14.874;2023-04-27T05:37:00;99003.56;;;4.12;80.82
66547;BME280;53400;50.364;14.874;2023-04-27T05:39:33;99011.88;;;4.37;78.76
66547;BME280;53400;50.364;14.874;2023-04-27T05:42:03;99000.50;;;4.50;78.05
66547;BME280;53400;50.364;14.874;2023-04-27T05:44:35;99001.63;;;4.63;78.40
66547;BME280;53400;50.364;14.874;2023-04-27T05:47:20;99018.34;;;4.28;80.44
66547;BME280;53400;50.364;14.874;2023-04-27T05:50:05;99007.09;;;4.61;80.44
66547;BME280;53400;50.364;14.874;2023-04-27T05:52:57;99021.69;;;4.44;79.66
66547;BME280;53400;50.364;14.874;2023-04-27T05:55:46;99015.19;;;4.46;79.16
66547;BME280;53400;50.364;14.874;2023-04-27T05:58:14;99022.66;;;4.71;79.99
66547;BME280;53400;50.364;14.874;2023-04-27T06:00:42;99016.59;;;5.45;77.37
66547;BME280;53400;50.364;14.874;2023-04-27T06:03:11;99012.09;;;5.59;75.45
66547;BME280;53400;50.364;14.874;2023-04-27T06:05:40;99014.75;;;5.85;74.58
66547;BME280;53400;50.364;14.874;2023-04-27T06:08:12;99009.47;;;5.98;73.28
66547;BME280;53400;50.364;14.874;2023-04-27T06:10:40;99014.53;;;5.47;75.04
66547;BME280;53400;50.364;14.874;2023-04-27T06:13:12;99018.25;;;5.72;74.37
66547;BME280;53400;50.364;14.874;2023-04-27T06:15:46;99014.38;;;5.82;75.61
66547;BME280;53400;50.364;14.874;2023-04-27T06:18:16;99008.97;;;6.48;72.00
66547;BME280;53400;50.364;14.874;2023-04-27T06:20:46;99010.78;;;7.06;70.47
66547;BME280;53400;50.364;14.874;2023-04-27T06:23:16;99010.25;;;6.90;70.43
66547;BME280;53400;50.364;14.874;2023-04-27T06:25:43;99004.38;;;7.20;69.22
66547;BME280;53400;50.364;14.874;2023-04-27T06:28:12;99019.69;;;7.63;69.69
66547;BME280;53400;50.364;14.874;2023-04-27T06:30:39;99022.84;;;8.28;67.75
66547;BME280;53400;50.364;14.874;2023-04-27T06:33:09;99012.91;;;7.92;67.67
66547;BME280;53400;50.364;14.874;2023-04-27T06:35:38;99022.34;;;7.95;68.71
66547;BME280;53400;50.364;14.874;2023-04-27T06:38:11;99020.34;;;8.09;68.50
66547;BME280;53400;50.364;14.874;2023-04-27T06:40:39;99022.44;;;8.07;67.23
66547;BME280;53400;50.364;14.874;2023-04-27T06:43:08;99020.75;;;8.31;65.30
66547;BME280;53400;50.364;14.874;2023-04-27T06:45:36;99021.53;;;8.38;64.33
66547;BME280;53400;50.364;14.874;2023-04-27T06:48:06;99025.44;;;7.60;66.42
66547;BME280;53400;50.364;14.874;2023-04-27T06:50:32;99026.63;;;8.83;64.81
66547;BME280;53400;50.364;14.874;2023-04-27T06:53:02;99024.22;;;7.88;65.29
66547;BME280;53400;50.364;14.874;2023-04-27T06:55:32;99034.47;;;8.41;64.26
66547;BME280;53400;50.364;14.874;2023-04-27T06:57:59;99022.31;;;8.20;64.59
66547;BME280;53400;50.364;14.874;2023-04-27T07:00:27;99026.22;;;8.79;63.29
66547;BME280;53400;50.364;14.874;2023-04-27T07:02:56;99023.97;;;8.83;61.50
66547;BME280;53400;50.364;14.874;2023-04-27T07:05:25;99027.19;;;9.03;60.94
66547;BME280;53400;50.364;14.874;2023-04-27T07:07:53;99026.53;;;8.89;59.94
66547;BME280;53400;50.364;14.874;2023-04-27T07:10:22;99014.56;;;9.10;60.09
66547;BME280;53400;50.364;14.874;2023-04-27T07:12:52;99027.34;;;9.38;55.57
66547;BME280;53400;50.364;14.874;2023-04-27T07:15:21;99033.91;;;9.24;57.81
66547;BME280;53400;50.364;14.874;2023-04-27T07:17:52;99029.09;;;9.14;58.86
66547;BME280;53400;50.364;14.874;2023-04-27T07:20:21;99027.00;;;9.88;55.58
66547;BME280;53400;50.364;14.874;2023-04-27T07:22:51;99027.53;;;10.44;55.35
66547;BME280;53400;50.364;14.874;2023-04-27T07:25:20;99027.69;;;10.90;52.62
66547;BME280;53400;50.364;14.874;2023-04-27T07:27:55;99016.75;;;10.79;52.09
66547;BME280;53400;50.364;14.874;2023-04-27T07:30:23;99020.63;;;11.12;49.34
66547;BME280;53400;50.364;14.874;2023-04-27T07:32:53;99020.75;;;10.65;51.44
66547;BME280;53400;50.364;14.874;2023-04-27T07:35:24;99018.72;;;11.24;54.15
66547;BME280;53400;50.364;14.874;2023-04-27T07:37:51;99026.63;;;11.31;52.07
66547;BME280;53400;50.364;14.874;2023-04-27T07:40:18;99035.41;;;11.43;51.08
66547;BME280;53400;50.364;14.874;2023-04-27T07:42:48;99029.41;;;11.36;47.49
66547;BME280;53400;50.364;14.874;2023-04-27T07:45:18;99024.06;;;11.24;48.66
66547;BME280;53400;50.364;14.874;2023-04-27T07:47:49;99030.81;;;11.56;49.08
66547;BME280;53400;50.364;14.874;2023-04-27T07:50:28;99024.88;;;10.96;50.69
66547;BME280;53400;50.364;14.874;2023-04-27T07:52:56;99016.97;;;9.72;51.48
66547;BME280;53400;50.364;14.874;2023-04-27T07:55:24;99017.84;;;10.08;51.41
66547;BME280;53400;50.364;14.874;2023-04-27T07:57:55;99033.66;;;8.95;53.58
66547;BME280;53400;50.364;14.874;2023-04-27T08:00:26;99021.41;;;9.78;52.88
66547;BME280;53400;50.364;14.874;2023-04-27T08:02:56;99029.84;;;9.63;51.24
66547;BME280;53400;50.364;14.874;2023-04-27T08:05:23;99029.34;;;10.08;51.59
66547;BME280;53400;50.364;14.874;2023-04-27T08:07:53;99021.59;;;10.42;48.21
66547;BME280;53400;50.364;14.874;2023-04-27T08:10:22;99020.34;;;11.25;47.31
66547;BME280;53400;50.364;14.874;2023-04-27T08:12:49;99027.09;;;11.74;44.88
66547;BME280;53400;50.364;14.874;2023-04-27T08:15:19;99025.84;;;11.19;46.07
66547;BME280;53400;50.364;14.874;2023-04-27T08:17:53;99021.44;;;11.13;48.80
66547;BME280;53400;50.364;14.874;2023-04-27T08:20:24;99024.44;;;11.16;45.70
66547;BME280;53400;50.364;14.874;2023-04-27T08:23:05;99015.50;;;9.46;47.97
66547;BME280;53400;50.364;14.874;2023-04-27T08:25:32;99023.25;;;9.78;48.80
66547;BME280;53400;50.364;14.874;2023-04-27T08:28:03;99029.22;;;8.53;51.57
66547;BME280;53400;50.364;14.874;2023-04-27T08:30:34;99019.78;;;10.01;49.76
66547;BME280;53400;50.364;14.874;2023-04-27T08:33:09;99020.28;;;9.44;49.80
66547;BME280;53400;50.364;14.874;2023-04-27T08:35:40;99024.94;;;10.02;51.60
66547;BME280;53400;50.364;14.874;2023-04-27T08:38:09;99027.88;;;10.60;49.45
66547;BME280;53400;50.364;14.874;2023-04-27T08:40:41;99025.03;;;10.78;49.93
66547;BME280;53400;50.364;14.874;2023-04-27T08:43:17;99025.75;;;11.14;47.44
66547;BME280;53400;50.364;14.874;2023-04-27T08:45:48;99025.72;;;10.73;48.47
66547;BME280;53400;50.364;14.874;2023-04-27T08:48:29;99029.34;;;10.08;48.90
66547;BME280;53400;50.364;14.874;2023-04-27T08:50:58;99030.69;;;10.29;49.71
66547;BME280;53400;50.364;14.874;2023-04-27T08:53:33;99029.66;;;10.94;47.01
66547;BME280;53400;50.364;14.874;2023-04-27T08:56:01;99031.63;;;10.47;50.79
66547;BME280;53400;50.364;14.874;2023-04-27T08:58:37;99031.69;;;10.64;52.70
66547;BME280;53400;50.364;14.874;2023-04-27T09:01:05;99032.28;;;10.54;50.06
66547;BME280;53400;50.364;14.874;2023-04-27T09:03:42;99036.91;;;10.70;47.45
66547;BME280;53400;50.364;14.874;2023-04-27T09:06:13;99043.78;;;10.78;47.67
66547;BME280;53400;50.364;14.874;2023-04-27T09:08:43;99036.09;;;10.82;47.86
66547;BME280;53400;50.364;14.874;2023-04-27T09:11:12;99034.38;;;10.64;49.42
66547;BME280;53400;50.364;14.874;2023-04-27T09:13:40;99034.09;;;10.77;47.83
66547;BME280;53400;50.364;14.874;2023-04-27T09:16:14;99031.97;;;11.31;48.27
66547;BME280;53400;50.364;14.874;2023-04-27T09:18:46;99029.84;;;11.90;45.16
66547;BME280;53400;50.364;14.874;2023-04-27T09:21:25;99026.31;;;12.40;44.71
66547;BME280;53400;50.364;14.874;2023-04-27T09:23:56;99032.66;;;12.51;46.13
66547;BME280;53400;50.364;14.874;2023-04-27T09:26:26;99027.59;;;12.55;44.66
66547;BME280;53400;50.364;14.874;2023-04-27T09:28:56;99024.56;;;13.12;42.74
66547;BME280;53400;50.364;14.874;2023-04-27T09:31:31;99021.78;;;13.07;43.64
66547;BME280;53400;50.364;14.874;2023-04-27T09:34:04;99014.34;;;13.95;43.48
66547;BME280;53400;50.364;14.874;2023-04-27T09:36:40;99015.16;;;13.96;42.79
66547;BME280;53400;50.364;14.874;2023-04-27T09:39:08;99020.47;;;12.66;43.58
66547;BME280;53400;50.364;14.874;2023-04-27T09:41:37;99011.41;;;12.72;42.36
66547;BME280;53400;50.364;14.874;2023-04-27T09:44:10;99021.88;;;12.12;46.15
66547;BME280;53400;50.364;14.874;2023-04-27T09:46:38;99019.16;;;12.29;44.76
66547;BME280;53400;50.364;14.874;2023-04-27T09:49:12;99013.28;;;11.82;43.47
66547;BME280;53400;50.364;14.874;2023-04-27T09:51:41;99018.88;;;11.63;43.65
66547;BME280;53400;50.364;14.874;2023-04-27T09:54:10;99010.63;;;11.82;42.65
66547;BME280;53400;50.364;14.874;2023-04-27T09:56:49;99018.72;;;11.24;46.96
66547;BME280;53400;50.364;14.874;2023-04-27T09:59:36;99018.41;;;10.69;47.94
66547;BME280;53400;50.364;14.874;2023-04-27T10:02:15;99021.00;;;11.04;48.60
66547;BME280;53400;50.364;14.874;2023-04-27T10:05:09;99008.38;;;11.90;45.22
66547;BME280;53400;50.364;14.874;2023-04-27T10:07:45;99016.00;;;11.99;45.11
66547;BME280;53400;50.364;14.874;2023-04-27T10:10:16;99017.78;;;12.10;43.10
66547;BME280;53400;50.364;14.874;2023-04-27T10:12:54;99006.38;;;12.20;44.63
66547;BME280;53400;50.364;14.874;2023-04-27T10:15:30;99017.72;;;11.88;44.32
66547;BME280;53400;50.364;14.874;2023-04-27T10:18:02;99000.88;;;11.47;46.37
66547;BME280;53400;50.364;14.874;2023-04-27T10:20:48;99003.38;;;12.16;45.30
66547;BME280;53400;50.364;14.874;2023-04-27T10:23:23;98998.88;;;12.38;43.70
66547;BME280;53400;50.364;14.874;2023-04-27T10:25:53;98989.16;;;11.99;41.44
66547;BME280;53400;50.364;14.874;2023-04-27T10:28:20;98992.06;;;12.14;44.76
66547;BME280;53400;50.364;14.874;2023-04-27T10:30:51;98994.34;;;12.61;41.23
66547;BME280;53400;50.364;14.874;2023-04-27T10:33:23;99001.28;;;13.01;41.11
66547;BME280;53400;50.364;14.874;2023-04-27T10:36:01;98993.25;;;11.39;44.00
66547;BME280;53400;50.364;14.874;2023-04-27T10:38:30;99000.03;;;12.86;42.68
66547;BME280;53400;50.364;14.874;2023-04-27T10:41:00;98988.09;;;13.75;39.12
66547;BME280;53400;50.364;14.874;2023-04-27T10:43:34;98986.16;;;14.08;42.72
66547;BME280;53400;50.364;14.874;2023-04-27T10:46:14;98984.59;;;14.17;40.89
66547;BME280;53400;50.364;14.874;2023-04-27T10:48:43;98982.25;;;13.89;42.49
66547;BME280;53400;50.364;14.874;2023-04-27T10:51:17;98981.72;;;13.54;43.16
66547;BME280;53400;50.364;14.874;2023-04-27T10:53:45;98982.91;;;13.42;41.19
66547;BME280;53400;50.364;14.874;2023-04-27T10:56:17;98978.97;;;13.82;38.30
66547;BME280;53400;50.364;14.874;2023-04-27T10:58:44;98992.13;;;13.46;40.88
66547;BME280;53400;50.364;14.874;2023-04-27T11:01:23;98990.63;;;13.60;39.02
66547;BME280;53400;50.364;14.874;2023-04-27T11:03:55;98991.44;;;12.84;39.48
66547;BME280;53400;50.364;14.874;2023-04-27T11:06:27;98990.28;;;11.69;42.82
66547;BME280;53400;50.364;14.874;2023-04-27T11:08:55;98991.66;;;12.39;40.33
66547;BME280;53400;50.364;14.874;2023-04-27T11:11:26;98990.69;;;12.28;42.02
66547;BME280;53400;50.364;14.874;2023-04-27T11:13:55;98985.84;;;11.91;41.00
66547;BME280;53400;50.364;14.874;2023-04-27T11:16:31;98986.84;;;11.74;40.84
66547;BME280;53400;50.364;14.874;2023-04-27T11:19:04;98979.78;;;11.84;41.27
66547;BME280;53400;50.364;14.874;2023-04-27T11:21:39;98988.06;;;12.33;40.16
66547;BME280;53400;50.364;14.874;2023-04-27T11:24:11;98991.09;;;12.81;41.96
66547;BME280;53400;50.364;14.874;2023-04-27T11:26:41;98995.34;;;12.77;40.70
66547;BME280;53400;50.364;14.874;2023-04-27T11:29:11;98993.47;;;12.77;42.06
66547;BME280;53400;50.364;14.874;2023-04-27T11:31:42;98986.22;;;13.00;40.27
66547;BME280;53400;50.364;14.874;2023-04-27T11:34:21;98990.91;;;13.09;41.24
66547;BME280;53400;50.364;14.874;2023-04-27T11:37:01;98999.06;;;13.20;40.81
66547;BME280;53400;50.364;14.874;2023-04-27T11:39:32;98996.59;;;13.13;41.30
66547;BME280;53400;50.364;14.874;2023-04-27T11:42:17;98996.13;;;13.43;39.61
66547;BME280;53400;50.364;14.874;2023-04-27T11:44:52;98999.38;;;13.23;39.42
66547;BME280;53400;50.364;14.874;2023-04-27T11:47:33;98994.84;;;13.24;41.49
66547;BME280;53400;50.364;14.874;2023-04-27T11:50:06;98995.66;;;13.51;41.25
66547;BME280;53400;50.364;14.874;2023-04-27T11:52:38;98990.03;;;13.26;41.73
66547;BME280;53400;50.364;14.874;2023-04-27T11:55:10;98984.34;;;13.49;40.31
66547;BME280;53400;50.364;14.874;2023-04-27T11:57:42;98996.84;;;13.34;43.66
66547;BME280;53400;50.364;14.874;2023-04-27T12:00:15;98988.78;;;13.34;43.31
66547;BME280;53400;50.364;14.874;2023-04-27T12:02:51;98989.06;;;13.37;40.22
66547;BME280;53400;50.364;14.874;2023-04-27T12:05:19;98985.00;;;13.62;37.68
66547;BME280;53400;50.364;14.874;2023-04-27T12:07:48;98978.59;;;12.92;37.54
66547;BME280;53400;50.364;14.874;2023-04-27T12:10:16;98984.88;;;13.02;38.24
66547;BME280;53400;50.364;14.874;2023-04-27T12:12:43;98976.53;;;12.77;39.82
66547;BME280;53400;50.364;14.874;2023-04-27T12:15:12;98990.22;;;12.97;39.84
66547;BME280;53400;50.364;14.874;2023-04-27T12:17:39;98986.81;;;13.29;38.06
66547;BME280;53400;50.364;14.874;2023-04-27T12:20:11;98981.91;;;12.77;39.90
66547;BME280;53400;50.364;14.874;2023-04-27T12:22:41;98982.41;;;12.96;38.73
66547;BME280;53400;50.364;14.874;2023-04-27T12:25:10;98982.66;;;13.43;38.04
66547;BME280;53400;50.364;14.874;2023-04-27T12:27:37;98980.72;;;13.98;37.89
66547;BME280;53400;50.364;14.874;2023-04-27T12:30:08;98980.75;;;13.71;38.24
66547;BME280;53400;50.364;14.874;2023-04-27T12:32:40;98985.38;;;13.21;40.00
66547;BME280;53400;50.364;14.874;2023-04-27T12:35:09;98983.03;;;13.52;40.10
66547;BME280;53400;50.364;14.874;2023-04-27T12:37:40;98980.19;;;14.01;38.38
66547;BME280;53400;50.364;14.874;2023-04-27T12:40:12;98979.75;;;14.52;36.37
66547;BME280;53400;50.364;14.874;2023-04-27T12:42:43;98973.44;;;13.98;36.64
66547;BME280;53400;50.364;14.874;2023-04-27T12:45:10;98975.44;;;13.81;36.45
66547;BME280;53400;50.364;14.874;2023-04-27T12:47:39;98980.50;;;13.40;38.92
66547;BME280;53400;50.364;14.874;2023-04-27T12:50:09;98987.06;;;13.82;41.85
66547;BME280;53400;50.364;14.874;2023-04-27T12:52:39;98980.53;;;14.10;36.08
66547;BME280;53400;50.364;14.874;2023-04-27T12:55:11;98976.41;;;13.97;37.30
66547;BME280;53400;50.364;14.874;2023-04-27T12:57:38;98969.25;;;13.75;41.23
66547;BME280;53400;50.364;14.874;2023-04-27T13:00:10;98972.81;;;13.86;41.37
66547;BME280;53400;50.364;14.874;2023-04-27T13:02:38;98979.81;;;13.55;38.31
66547;BME280;53400;50.364;14.874;2023-04-27T13:05:06;98974.31;;;13.45;39.06
66547;BME280;53400;50.364;14.874;2023-04-27T13:07:33;98956.44;;;13.06;36.95
66547;BME280;53400;50.364;14.874;2023-04-27T13:10:05;98973.59;;;13.00;40.00
66547;BME280;53400;50.364;14.874;2023-04-27T13:12:39;98973.97;;;13.09;42.03
66547;BME280;53400;50.364;14.874;2023-04-27T13:15:08;98971.78;;;13.60;39.28
66547;BME280;53400;50.364;14.874;2023-04-27T13:17:39;98967.44;;;13.86;41.48
66547;BME280;53400;50.364;14.874;2023-04-27T13:20:08;98970.16;;;13.91;37.00
66547;BME280;53400;50.364;14.874;2023-04-27T13:22:42;98970.09;;;13.54;41.91
66547;BME280;53400;50.364;14.874;2023-04-27T13:25:13;98968.16;;;13.44;39.67
66547;BME280;53400;50.364;14.874;2023-04-27T13:27:47;98957.50;;;13.54;37.70
66547;BME280;53400;50.364;14.874;2023-04-27T13:30:14;98957.16;;;13.51;41.92
66547;BME280;53400;50.364;14.874;2023-04-27T13:32:48;98957.88;;;13.36;39.95
66547;BME280;53400;50.364;14.874;2023-04-27T13:35:18;98961.66;;;12.91;41.75
66547;BME280;53400;50.364;14.874;2023-04-27T13:37:52;98957.81;;;13.63;39.59
66547;BME280;53400;50.364;14.874;2023-04-27T13:40:22;98964.63;;;13.71;38.93
66547;BME280;53400;50.364;14.874;2023-04-27T13:42:52;98953.84;;;14.08;38.61
66547;BME280;53400;50.364;14.874;2023-04-27T13:45:21;98956.34;;;13.50;38.83
66547;BME280;53400;50.364;14.874;2023-04-27T13:47:48;98954.00;;;13.91;37.95
66547;BME280;53400;50.364;14.874;2023-04-27T13:50:19;98947.31;;;13.94;36.93
66547;BME280;53400;50.364;14.874;2023-04-27T13:52:52;98947.56;;;13.28;37.33
66547;BME280;53400;50.364;14.874;2023-04-27T13:55:21;98951.06;;;12.57;39.81
66547;BME280;53400;50.364;14.874;2023-04-27T13:57:57;98945.16;;;12.38;40.14
66547;BME280;53400;50.364;14.874;2023-04-27T14:00:26;98944.22;;;12.72;39.52
66547;BME280;53400;50.364;14.874;2023-04-27T14:03:00;98942.09;;;12.74;38.83
66547;BME280;53400;50.364;14.874;2023-04-27T14:05:37;98942.06;;;12.96;38.24